Time;durP1;ratioP1;P1;durP2;ratioP2;P2;SDS_P1;SDS_P2;PMS_P1;PMS_P2;Temp;Humidity;BMP_temperature;BMP_pressure;BME280_temperature;BME280_humidity;BME280_pressure;Samples;Min_cycle;Max_cycle;Signal;HPM_P1;HPM_P2
2022/06/16 00:01:00;;;;;;;7.30;6.70;;;;;;;18.90;50.28;100336.19;5018075;28;97173;-82
2022/06/16 00:03:25;;;;;;;7.82;7.18;;;;;;;18.90;50.44;100338.00;4999742;28;97161;-84
2022/06/16 00:05:51;;;;;;;8.98;7.13;;;;;;;18.89;50.23;100338.97;5000736;28;100214;-83
2022/06/16 00:08:18;;;;;;;8.15;7.22;;;;;;;18.89;50.30;100338.97;5001161;28;101722;-86
2022/06/16 00:13:37;;;;;;;8.77;7.85;;;;;;;18.80;50.46;100336.94;5015471;28;97573;-83
2022/06/16 00:16:04;;;;;;;8.05;7.32;;;;;;;18.76;50.85;100338.91;4994138;28;101666;-83
2022/06/16 00:18:29;;;;;;;8.18;7.35;;;;;;;18.78;50.75;100329.03;4995055;28;101305;-83
2022/06/16 00:20:55;;;;;;;10.93;7.40;;;;;;;18.69;51.00;100326.97;5011102;28;97210;-82
2022/06/16 00:23:21;;;;;;;12.60;7.85;;;;;;;18.78;50.69;100332.56;4985722;28;97040;-82
2022/06/16 00:25:47;;;;;;;7.55;6.90;;;;;;;18.56;51.20;100321.66;5011549;28;101538;-89
2022/06/16 00:28:12;;;;;;;7.90;7.07;;;;;;;18.39;51.61;100305.97;4996752;28;101544;-87
2022/06/16 00:30:38;;;;;;;8.63;7.65;;;;;;;18.62;51.13;100328.38;5015928;28;97541;-82
2022/06/16 00:33:04;;;;;;;9.30;7.72;;;;;;;18.50;51.36;100308.75;5017282;28;96860;-82
2022/06/16 00:35:30;;;;;;;7.78;6.70;;;;;;;18.57;51.10;100325.16;5013965;28;101352;-85
2022/06/16 00:37:55;;;;;;;10.52;7.43;;;;;;;18.59;51.20;100321.44;5003058;28;101442;-82
2022/06/16 00:40:21;;;;;;;7.85;7.03;;;;;;;18.54;51.38;100312.94;4992572;28;97427;-82
2022/06/16 00:42:46;;;;;;;8.07;7.03;;;;;;;18.36;51.53;100296.41;5004339;28;98199;-85
2022/06/16 00:45:44;;;;;;;7.80;7.00;;;;;;;18.42;51.96;100319.91;4995972;28;101166;-82
2022/06/16 00:48:25;;;;;;;8.43;7.68;;;;;;;18.45;51.55;100317.03;5011514;28;100975;-82
2022/06/16 00:51:07;;;;;;;7.43;6.85;;;;;;;18.29;51.99;100308.38;4997094;28;96749;-82
2022/06/16 00:53:32;;;;;;;;;;;;;;;18.26;52.36;100317.41;4999038;28;96925;-83
2022/06/16 00:55:58;;;;;;;10.60;8.05;;;;;;;18.23;52.45;100316.75;5008985;28;97668;-84
2022/06/16 00:58:26;;;;;;;8.55;7.68;;;;;;;18.24;52.42;100315.84;4996621;28;101557;-82
2022/06/16 01:00:51;;;;;;;8.13;7.30;;;;;;;18.23;52.41;100314.09;4996640;28;97176;-82
2022/06/16 01:04:51;;;;;;;8.90;8.18;;;;;;;18.16;52.54;100311.00;5000471;28;96673;-82
2022/06/16 01:06:17;;;;;;;8.95;8.13;;;;;;;18.07;52.59;100298.34;5016259;28;101765;-82
2022/06/16 01:08:42;;;;;;;8.63;7.65;;;;;;;18.25;52.33;100313.06;5012932;28;101515;-82
2022/06/16 01:13:41;;;;;;;8.15;7.25;;;;;;;18.04;52.96;100303.84;5016673;28;96631;-82
2022/06/16 01:14:02;;;;;;;7.57;7.00;;;;;;;18.11;52.85;100313.09;5018654;28;97138;-82
2022/06/16 01:16:37;;;;;;;8.45;7.75;;;;;;;17.91;53.02;100287.84;5007340;28;98595;-84
2022/06/16 01:19:10;;;;;;;9.50;8.00;;;;;;;18.03;53.09;100302.97;4997502;28;100580;-84
2022/06/16 01:21:50;;;;;;;7.80;7.10;;;;;;;17.94;53.25;100306.22;5016919;28;97016;-82
2022/06/16 01:24:35;;;;;;;8.65;7.63;;;;;;;17.97;53.30;100306.03;5016575;28;97233;-82
2022/06/16 01:27:32;;;;;;;8.82;8.13;;;;;;;17.81;53.51;100300.88;5016430;28;101026;-82
2022/06/16 01:30:03;;;;;;;8.90;8.02;;;;;;;17.83;53.79;100301.63;5005010;28;101507;-82
2022/06/16 01:32:51;;;;;;;12.60;7.55;;;;;;;17.81;53.49;100298.22;4991524;28;98064;-83
2022/06/16 01:35:22;;;;;;;10.35;8.43;;;;;;;17.72;53.89;100309.41;5004702;28;96798;-82
2022/06/16 01:38:04;;;;;;;13.63;8.55;;;;;;;17.75;53.79;100311.00;5011610;28;101609;-86
2022/06/16 01:40:36;;;;;;;8.57;7.72;;;;;;;17.72;53.97;100312.06;5027370;28;101545;-82
2022/06/16 01:43:32;;;;;;;9.20;8.32;;;;;;;17.74;54.13;100309.28;5000891;28;98057;-82
2022/06/16 01:46:14;;;;;;;8.70;8.00;;;;;;;17.69;54.01;100314.91;5014034;28;96978;-82
2022/06/16 01:48:43;;;;;;;9.98;9.00;;;;;;;17.61;54.09;100288.00;5010623;28;100677;-82
2022/06/16 01:51:14;;;;;;;9.82;8.82;;;;;;;17.65;54.16;100286.84;5003301;28;101913;-84
2022/06/16 01:53:47;;;;;;;9.95;8.18;;;;;;;17.60;54.56;100299.56;5014991;28;97707;-81
2022/06/16 01:56:29;;;;;;;10.18;7.90;;;;;;;17.52;54.55;100296.56;4997414;28;96872;-82
2022/06/16 01:59:09;;;;;;;9.27;8.48;;;;;;;17.49;54.08;100270.22;5002214;28;101145;-82
2022/06/16 02:01:42;;;;;;;9.48;8.63;;;;;;;17.57;54.29;100297.09;4992038;28;100928;-82
2022/06/16 02:04:14;;;;;;;11.13;8.05;;;;;;;17.51;54.92;100294.81;4998492;28;96788;-82
2022/06/16 02:06:42;;;;;;;9.25;8.25;;;;;;;17.53;54.46;100296.44;5030133;27;96852;-81
2022/06/16 02:09:11;;;;;;;9.55;8.57;;;;;;;17.60;54.59;100289.81;5015066;28;101654;-82
2022/06/16 02:11:36;;;;;;;9.55;8.52;;;;;;;17.62;54.62;100302.97;4996774;28;101331;-83
2022/06/16 02:14:22;;;;;;;12.18;8.27;;;;;;;17.37;55.01;100285.94;5014183;28;96919;-82
2022/06/16 02:16:51;;;;;;;11.02;8.73;;;;;;;17.46;54.92;100300.44;5009675;28;97899;-83
2022/06/16 02:19:20;;;;;;;9.52;8.52;;;;;;;17.28;54.74;100259.13;4992450;28;99316;-82
2022/06/16 02:21:49;;;;;;;9.27;8.38;;;;;;;17.39;54.63;100269.91;5006360;28;101411;-81
2022/06/16 02:24:20;;;;;;;9.00;8.10;;;;;;;17.53;54.69;100300.91;4999609;28;97581;-83
2022/06/16 02:26:47;;;;;;;11.48;8.68;;;;;;;17.48;54.76;100287.91;4992555;28;98071;-81
2022/06/16 02:29:33;;;;;;;8.93;7.78;;;;;;;17.47;54.87;100302.13;4996914;28;102055;-83
2022/06/16 02:32:32;;;;;;;9.20;7.78;;;;;;;17.51;54.99;100301.00;5013891;28;101762;-82
2022/06/16 02:35:07;;;;;;;8.88;7.53;;;;;;;17.46;55.17;100302.25;5013982;28;96663;-85
2022/06/16 02:38:26;;;;;;;9.77;8.65;;;;;;;17.35;55.18;100289.66;5016080;28;97110;-82
2022/06/16 02:40:55;;;;;;;9.50;7.70;;;;;;;17.07;55.33;100269.28;4913515;28;102105;-87
2022/06/16 02:43:21;;;;;;;9.32;8.25;;;;;;;17.32;55.44;100295.16;4929122;28;98390;-81
2022/06/16 02:45:58;;;;;;;9.98;8.50;;;;;;;17.30;55.57;100303.19;4939449;28;97167;-81
2022/06/16 02:48:45;;;;;;;9.88;8.68;;;;;;;17.30;55.75;100283.78;4936226;28;96829;-81
2022/06/16 02:51:13;;;;;;;11.05;9.20;;;;;;;16.92;56.34;100261.31;4902509;28;101309;-82
2022/06/16 02:54:11;;;;;;;12.38;9.07;;;;;;;17.16;55.71;100287.28;4935710;28;100241;-82
2022/06/16 02:56:51;;;;;;;9.25;8.35;;;;;;;17.23;55.68;100291.25;4904385;28;96846;-82
2022/06/16 02:59:22;;;;;;;10.00;8.48;;;;;;;17.24;55.85;100285.00;4934747;28;96933;-82
2022/06/16 03:01:48;;;;;;;13.10;8.63;;;;;;;17.23;55.62;100278.00;4918943;28;102293;-82
2022/06/16 03:04:16;;;;;;;10.73;9.20;;;;;;;17.26;55.47;100274.31;4916673;28;101956;-81
2022/06/16 03:06:45;;;;;;;10.05;9.15;;;;;;;17.32;55.64;100296.00;4903613;28;96778;-81
2022/06/16 03:09:11;;;;;;;10.02;8.93;;;;;;;17.27;55.62;100286.63;4934914;28;97325;-82
2022/06/16 03:11:38;;;;;;;12.38;9.23;;;;;;;17.28;55.36;100280.34;4977008;28;101594;-82
2022/06/16 03:14:08;;;;;;;9.50;8.38;;;;;;;17.28;55.84;100283.88;4995673;28;101567;-83
2022/06/16 03:16:38;;;;;;;11.02;8.82;;;;;;;17.27;55.96;100279.50;5015898;28;96652;-82
2022/06/16 03:19:04;;;;;;;11.90;9.93;;;;;;;17.42;55.59;100293.59;5014353;28;96929;-86
2022/06/16 03:21:31;;;;;;;11.02;9.27;;;;;;;17.46;55.77;100289.81;5011370;28;101692;-81
2022/06/16 03:23:57;;;;;;;11.45;9.80;;;;;;;17.32;55.41;100255.34;5007698;27;101869;-82
2022/06/16 03:26:22;;;;;;;10.80;9.55;;;;;;;17.49;55.24;100284.31;5018299;28;96892;-81
2022/06/16 03:28:53;;;;;;;13.65;9.48;;;;;;;17.59;55.30;100289.88;5019542;28;96779;-81
2022/06/16 03:31:19;;;;;;;14.60;9.88;;;;;;;17.68;55.16;100291.09;5016979;28;100951;-81
2022/06/16 03:33:47;;;;;;;10.63;8.90;;;;;;;17.64;55.43;100288.66;4989467;28;100800;-81
2022/06/16 03:36:14;;;;;;;14.10;9.85;;;;;;;17.47;55.32;100251.72;5001751;28;96930;-82
2022/06/16 03:38:43;;;;;;;11.23;9.88;;;;;;;17.65;55.09;100277.06;5005672;28;96793;-81
2022/06/16 03:41:12;;;;;;;9.52;8.63;;;;;;;17.61;55.29;100274.72;4998200;28;101764;-83
2022/06/16 03:43:39;;;;;;;10.35;9.30;;;;;;;17.29;55.74;100232.53;4997342;28;101437;-81
2022/06/16 03:46:14;;;;;;;12.82;9.07;;;;;;;17.39;55.85;100249.56;5003452;28;96770;-83
2022/06/16 03:48:44;;;;;;;;;;;;;;;17.51;55.87;100274.47;5019761;28;96902;-82
2022/06/16 03:51:12;;;;;;;11.85;10.43;;;;;;;17.55;55.66;100275.13;5001893;28;101645;-83
2022/06/16 03:53:40;;;;;;;11.45;10.00;;;;;;;17.62;55.58;100277.28;4988162;28;101546;-82
2022/06/16 03:56:06;;;;;;;13.73;9.77;;;;;;;17.47;56.30;100257.03;5014652;28;97031;-82
2022/06/16 03:58:33;;;;;;;13.30;10.05;;;;;;;17.52;56.11;100262.06;5015939;28;96901;-83
2022/06/16 04:00:59;;;;;;;12.20;9.98;;;;;;;17.51;56.12;100255.91;4989836;28;101527;-82
2022/06/16 04:06:12;;;;;;;14.07;9.95;;;;;;;17.74;55.81;100270.31;5020326;28;97118;-82
2022/06/16 04:08:38;;;;;;;11.60;10.45;;;;;;;17.56;55.72;100240.50;5001621;28;97181;-82
2022/06/16 04:11:26;;;;;;;12.20;9.82;;;;;;;17.72;55.97;100263.44;4999472;28;100078;-84
2022/06/16 04:13:52;;;;;;;15.90;10.75;;;;;;;17.65;56.10;100242.56;5001887;28;101778;-82
2022/06/16 04:16:18;;;;;;;13.15;9.98;;;;;;;17.73;56.10;100268.63;4994953;28;96790;-82
2022/06/16 04:18:44;;;;;;;10.50;9.32;;;;;;;17.49;55.92;100210.03;4981813;28;97060;-82
2022/06/16 04:21:12;;;;;;;11.05;9.98;;;;;;;17.69;55.91;100229.13;4996709;28;101817;-83
2022/06/16 04:23:57;;;;;;;11.25;10.10;;;;;;;17.74;56.50;100262.34;5002290;28;101606;-87
2022/06/16 04:26:24;;;;;;;14.63;11.13;;;;;;;17.74;56.91;100259.69;5017235;28;96888;-82
2022/06/16 04:28:51;;;;;;;10.73;9.75;;;;;;;17.73;56.59;100250.03;5001473;28;96906;-83
2022/06/16 04:31:20;;;;;;;14.38;9.85;;;;;;;17.93;56.31;100256.75;5017082;28;99279;-82
2022/06/16 04:33:46;;;;;;;22.50;10.77;;;;;;;17.86;56.26;100252.81;4993736;28;101128;-82
2022/06/16 04:36:13;;;;;;;11.75;10.55;;;;;;;17.82;56.35;100238.84;4998897;28;96976;-82
2022/06/16 04:38:48;;;;;;;13.95;9.60;;;;;;;17.76;56.62;100243.69;4986992;28;96999;-82
2022/06/16 04:41:15;;;;;;;15.70;10.52;;;;;;;17.71;56.86;100243.97;5013854;28;100874;-82
2022/06/16 04:43:43;;;;;;;13.90;10.20;;;;;;;17.71;56.62;100240.47;4998697;28;102154;-82
2022/06/16 04:46:15;;;;;;;11.68;10.05;;;;;;;17.53;57.15;100205.38;5013678;28;96723;-82
2022/06/16 04:48:45;;;;;;;10.88;9.73;;;;;;;17.78;57.02;100239.16;5017847;27;96836;-82
2022/06/16 04:51:12;;;;;;;12.82;10.48;;;;;;;17.76;57.06;100225.94;4997230;28;101087;-82
2022/06/16 04:53:43;;;;;;;16.85;10.27;;;;;;;17.70;57.05;100225.50;5017110;28;101402;-82
2022/06/16 04:56:44;;;;;;;11.90;10.40;;;;;;;17.75;56.91;100199.53;5003368;28;97023;-83
2022/06/16 04:59:28;;;;;;;14.20;11.52;;;;;;;18.15;56.44;100223.44;5014350;28;96821;-82
2022/06/16 05:02:04;;;;;;;14.77;10.60;;;;;;;18.24;56.68;100230.81;5008176;28;101848;-82
2022/06/16 05:04:59;;;;;;;14.05;11.18;;;;;;;18.46;55.62;100200.97;5004886;28;101232;-86
2022/06/16 05:07:37;;;;;;;11.95;10.70;;;;;;;18.57;55.60;100224.16;5003088;28;97116;-82
2022/06/16 05:10:08;;;;;;;12.75;11.50;;;;;;;18.63;55.67;100207.78;5006965;28;96994;-82
2022/06/16 05:12:58;;;;;;;;;;;;;;;18.85;55.52;100217.78;5019625;28;101676;-85
2022/06/16 05:15:42;;;;;;;11.82;10.70;;;;;;;18.98;54.86;100214.16;5016946;28;97023;-82
2022/06/16 05:18:27;;;;;;;11.85;10.70;;;;;;;19.13;54.81;100217.53;5021601;28;96785;-82
2022/06/16 05:21:11;;;;;;;15.95;11.35;;;;;;;19.23;54.50;100221.25;5004942;28;96806;-82
2022/06/16 05:23:55;;;;;;;13.63;10.50;;;;;;;19.35;54.41;100219.53;5016708;28;97162;-82
2022/06/16 05:26:39;;;;;;;11.27;10.32;;;;;;;19.38;54.33;100213.13;5016097;28;97196;-82
2022/06/16 05:29:19;;;;;;;11.50;10.38;;;;;;;19.22;54.47;100200.06;5002294;28;97198;-82
2022/06/16 05:32:15;;;;;;;11.77;10.65;;;;;;;19.53;54.33;100221.81;4995007;28;97691;-83
2022/06/16 05:34:59;;;;;;;12.10;10.88;;;;;;;19.51;54.31;100211.25;5011023;28;97167;-83
2022/06/16 05:37:54;;;;;;;11.20;10.30;;;;;;;19.74;54.21;100216.75;5004278;28;97773;-83
2022/06/16 05:40:46;;;;;;;11.38;10.27;;;;;;;19.82;53.84;100182.41;5001760;28;96965;-82
2022/06/16 05:43:38;;;;;;;13.43;11.00;;;;;;;19.96;53.88;100213.34;5016019;28;98836;-83
2022/06/16 05:46:22;;;;;;;11.52;10.43;;;;;;;19.66;54.08;100166.72;5004905;28;101787;-83
2022/06/16 05:49:12;;;;;;;12.32;11.07;;;;;;;19.94;54.02;100193.97;5006697;28;99326;-83
2022/06/16 05:51:39;;;;;;;12.25;9.90;;;;;;;20.06;53.90;100207.19;4996595;28;97064;-84
2022/06/16 05:54:08;;;;;;;11.38;10.18;;;;;;;20.15;54.08;100205.66;4984521;28;97021;-83
2022/06/16 05:56:36;;;;;;;10.45;9.63;;;;;;;20.42;53.78;100212.50;5009743;28;102123;-84
2022/06/16 05:59:02;;;;;;;13.02;9.35;;;;;;;20.72;53.17;100206.66;4998874;28;100605;-87
2022/06/16 06:01:30;;;;;;;10.82;9.73;;;;;;;20.90;53.15;100201.69;5008818;28;96952;-83
2022/06/16 06:04:02;;;;;;;11.10;10.07;;;;;;;21.29;52.09;100208.31;4995952;28;97148;-87
2022/06/16 06:06:28;;;;;;;10.70;9.77;;;;;;;21.64;50.80;100191.28;4999228;28;101728;-82
2022/06/16 06:17:18;;;;;;;11.63;8.68;;;;;;;24.25;45.29;100201.47;5007037;28;101789;-82
2022/06/16 06:19:46;;;;;;;10.23;9.27;;;;;;;23.95;45.93;100218.56;5013248;28;101470;-82
2022/06/16 06:22:15;;;;;;;10.20;9.32;;;;;;;24.34;45.46;100192.53;4997721;28;96679;-83
2022/06/16 06:24:46;;;;;;;10.60;9.75;;;;;;;24.97;44.26;100193.81;4997108;28;97905;-82
2022/06/16 06:27:33;;;;;;;10.40;9.43;;;;;;;25.57;42.96;100174.53;5012979;28;102198;-82
2022/06/16 06:30:00;;;;;;;11.05;9.95;;;;;;;25.50;42.98;100190.44;5015027;28;101052;-82
2022/06/16 06:32:27;;;;;;;12.35;10.70;;;;;;;25.79;42.79;100189.38;5003949;28;96838;-82
2022/06/16 06:34:53;;;;;;;11.05;10.00;;;;;;;26.28;42.24;100193.34;4998887;28;97188;-83
2022/06/16 06:37:21;;;;;;;10.40;9.38;;;;;;;26.41;41.47;100196.50;4998438;28;101272;-84
2022/06/16 06:39:47;;;;;;;10.73;9.57;;;;;;;25.91;42.75;100188.19;4996165;28;101463;-83
2022/06/16 06:42:13;;;;;;;11.15;10.15;;;;;;;25.15;44.22;100167.88;5015332;28;96764;-83
2022/06/16 06:44:42;;;;;;;9.85;8.95;;;;;;;25.72;42.88;100157.75;5015574;28;96913;-83
2022/06/16 06:47:09;;;;;;;9.60;8.90;;;;;;;26.98;41.59;100176.31;4997631;28;101153;-82
2022/06/16 06:49:35;;;;;;;10.30;9.38;;;;;;;27.16;41.15;100176.22;4998560;28;100918;-83
2022/06/16 06:52:01;;;;;;;10.25;9.35;;;;;;;26.74;41.12;100177.88;4998172;28;97561;-82
2022/06/16 06:54:27;;;;;;;10.05;9.15;;;;;;;26.07;42.94;100174.88;4998410;28;97293;-82
2022/06/16 06:56:53;;;;;;;10.73;9.13;;;;;;;26.12;43.16;100177.09;4998289;28;101412;-82
2022/06/16 06:59:19;;;;;;;9.57;8.88;;;;;;;26.29;42.30;100157.38;5014035;28;101237;-83
2022/06/16 07:01:46;;;;;;;9.10;8.40;;;;;;;26.41;42.32;100155.25;4995261;28;97232;-82
2022/06/16 07:04:12;;;;;;;9.90;9.10;;;;;;;26.32;42.15;100178.56;4998279;28;96942;-82
2022/06/16 07:06:38;;;;;;;9.57;8.77;;;;;;;25.93;42.44;100145.84;4997973;28;100894;-83
2022/06/16 07:09:03;;;;;;;9.75;8.88;;;;;;;26.85;41.59;100157.91;4997346;28;101269;-82
2022/06/16 07:11:31;;;;;;;9.88;8.95;;;;;;;27.98;39.58;100183.50;4992453;28;96823;-82
2022/06/16 07:13:58;;;;;;;9.70;8.90;;;;;;;27.50;39.76;100187.78;5005498;28;96915;-83
2022/06/16 07:16:24;;;;;;;10.07;9.27;;;;;;;26.85;41.14;100161.44;5029223;28;101412;-83
2022/06/16 07:18:50;;;;;;;10.05;9.23;;;;;;;26.60;41.99;100160.47;4992980;28;100674;-82
2022/06/16 07:21:16;;;;;;;9.60;9.00;;;;;;;26.91;41.18;100173.44;5001095;27;97178;-83
2022/06/16 07:23:42;;;;;;;9.43;8.55;;;;;;;27.10;40.75;100156.16;5005101;28;97036;-83
2022/06/16 07:26:09;;;;;;;9.77;9.00;;;;;;;26.99;41.55;100177.97;5011074;28;101632;-88
2022/06/16 07:28:35;;;;;;;9.30;8.57;;;;;;;27.17;41.38;100162.63;4994217;28;101596;-86
2022/06/16 07:31:00;;;;;;;11.40;9.07;;;;;;;27.30;40.82;100157.59;4994458;28;97152;-83
2022/06/16 07:33:26;;;;;;;9.63;8.85;;;;;;;27.19;41.46;100175.91;4994317;28;97826;-83
2022/06/16 07:35:55;;;;;;;10.57;9.57;;;;;;;27.28;41.15;100164.16;5004260;28;98120;-83
2022/06/16 07:38:22;;;;;;;11.43;8.57;;;;;;;27.20;41.41;100153.34;4995043;28;100717;-84
2022/06/16 07:40:48;;;;;;;9.00;8.32;;;;;;;27.26;41.31;100175.09;5014177;28;96649;-83
2022/06/16 07:43:17;;;;;;;9.23;8.63;;;;;;;27.44;41.25;100171.44;5003374;28;97522;-83
2022/06/16 07:45:45;;;;;;;9.40;8.60;;;;;;;27.07;42.23;100170.78;4994697;28;101135;-82
2022/06/16 07:48:11;;;;;;;10.90;9.35;;;;;;;26.92;42.60;100168.88;4993410;28;101176;-83
2022/06/16 07:50:37;;;;;;;10.25;9.27;;;;;;;26.68;42.92;100135.44;5026337;28;98210;-83
2022/06/16 07:53:04;;;;;;;9.23;8.43;;;;;;;26.88;42.63;100165.66;4999362;28;97177;-90
2022/06/16 07:55:31;;;;;;;9.00;8.30;;;;;;;27.03;41.67;100169.44;5009537;28;98547;-91
2022/06/16 07:57:56;;;;;;;10.18;8.98;;;;;;;27.05;41.01;100162.03;4995508;28;99986;-92
2022/06/16 08:00:25;;;;;;;9.55;8.65;;;;;;;26.59;42.07;100157.94;5009610;28;96798;-91
2022/06/16 08:02:51;;;;;;;9.20;8.60;;;;;;;26.31;42.91;100159.91;5012389;28;97261;-92
2022/06/16 08:05:17;;;;;;;9.68;8.93;;;;;;;26.31;43.11;100143.78;5010036;28;101487;-92
2022/06/16 08:07:43;;;;;;;9.63;8.85;;;;;;;26.12;43.44;100145.69;5008764;28;101026;-93
2022/06/16 08:10:14;;;;;;;9.57;8.68;;;;;;;25.73;44.43;100134.38;5030340;28;97431;-90
2022/06/16 08:12:40;;;;;;;9.50;8.77;;;;;;;25.60;44.42;100153.59;5007589;28;97280;-91
2022/06/16 08:15:06;;;;;;;10.40;9.60;;;;;;;25.39;44.72;100156.56;5033372;28;101139;-87
2022/06/16 08:17:34;;;;;;;9.15;8.32;;;;;;;25.70;44.58;100167.78;5017190;28;98376;-94
2022/06/16 08:20:01;;;;;;;9.88;7.95;;;;;;;25.99;43.79;100144.38;4999077;28;96815;-93
2022/06/16 08:22:26;;;;;;;15.05;8.70;;;;;;;26.60;43.42;100165.00;4999599;28;98708;-92
2022/06/16 08:24:52;;;;;;;9.25;8.45;;;;;;;27.87;41.49;100158.72;5014770;28;98513;-92
2022/06/16 08:27:21;;;;;;;9.55;8.10;;;;;;;27.73;40.97;100160.19;5012498;28;98267;-90
2022/06/16 08:29:47;;;;;;;8.20;7.50;;;;;;;27.19;40.19;100154.34;5017420;28;97325;-90
2022/06/16 08:32:17;;;;;;;9.35;8.75;;;;;;;28.15;38.79;100153.81;5026393;28;96769;-90
2022/06/16 08:34:42;;;;;;;8.52;7.82;;;;;;;28.50;38.22;100154.47;5000593;28;101031;-91
2022/06/16 08:37:08;;;;;;;8.50;7.78;;;;;;;28.29;38.83;100153.13;5018314;28;100031;-89
2022/06/16 08:39:33;;;;;;;8.77;8.07;;;;;;;27.74;39.22;100145.69;5012380;28;96702;-91
2022/06/16 08:42:13;;;;;;;9.73;8.75;;;;;;;27.50;39.58;100165.38;5017932;28;96801;-91
2022/06/16 08:44:41;;;;;;;8.50;7.93;;;;;;;27.47;39.93;100158.47;5017764;28;98245;-89
2022/06/16 08:47:23;;;;;;;9.82;9.13;;;;;;;28.99;37.84;100148.91;5002559;28;100151;-93
2022/06/16 08:49:54;;;;;;;9.25;8.40;;;;;;;30.06;36.71;100171.56;5033325;28;96777;-92
2022/06/16 08:52:41;;;;;;;8.68;8.07;;;;;;;30.55;35.31;100157.59;5012925;28;97091;-89
2022/06/16 08:55:20;;;;;;;9.35;8.40;;;;;;;30.58;34.98;100140.13;5024881;28;102034;-85
2022/06/16 08:58:15;;;;;;;9.37;8.67;;;;;;;30.39;35.46;100153.19;4997084;28;101170;-87
2022/06/16 09:00:45;;;;;;;12.23;9.70;;;;;;;29.83;35.94;100157.22;5012946;28;96890;-86
2022/06/16 09:03:33;;;;;;;9.23;8.57;;;;;;;29.59;36.60;100150.13;5013754;28;97250;-86
2022/06/16 09:06:04;;;;;;;9.20;8.52;;;;;;;29.11;37.00;100152.91;5015649;28;98643;-82
2022/06/16 09:08:47;;;;;;;9.93;8.52;;;;;;;28.70;37.33;100152.22;4995337;28;101491;-85
2022/06/16 09:11:25;;;;;;;9.63;8.65;;;;;;;28.46;37.85;100169.34;5032011;28;96669;-86
2022/06/16 09:13:54;;;;;;;8.85;8.10;;;;;;;28.28;37.93;100166.81;5009372;28;97475;-86
2022/06/16 09:16:47;;;;;;;8.60;7.87;;;;;;;28.24;37.55;100162.75;5014834;28;101013;-86
2022/06/16 09:19:39;;;;;;;8.23;7.50;;;;;;;28.12;37.88;100140.66;4998923;28;101289;-87
2022/06/16 09:22:14;;;;;;;8.07;7.32;;;;;;;28.07;38.26;100167.31;5010832;27;97157;-87
2022/06/16 09:24:53;;;;;;;8.35;7.75;;;;;;;27.98;38.46;100145.75;5015123;28;96994;-84
2022/06/16 09:27:25;;;;;;;12.75;7.63;;;;;;;27.95;38.53;100150.63;4998776;28;101898;-84
2022/06/16 09:30:12;;;;;;;8.57;8.00;;;;;;;27.91;39.16;100160.06;5015878;28;100290;-83
2022/06/16 09:32:39;;;;;;;8.65;7.93;;;;;;;27.89;39.02;100157.53;5002221;28;96719;-86
2022/06/16 09:35:28;;;;;;;7.72;7.13;;;;;;;28.25;38.83;100159.06;5015811;28;97597;-88
2022/06/16 09:38:20;;;;;;;8.77;7.95;;;;;;;28.28;37.82;100151.44;5030556;28;101325;-84
2022/06/16 09:40:54;;;;;;;8.13;7.43;;;;;;;28.52;37.65;100155.16;5012180;28;101709;-84
2022/06/16 09:43:29;;;;;;;8.43;7.30;;;;;;;28.59;37.22;100145.31;4998346;28;97320;-84
2022/06/16 09:46:00;;;;;;;8.25;7.40;;;;;;;28.54;37.94;100145.84;5034004;27;97236;-83
2022/06/16 09:48:55;;;;;;;8.07;7.40;;;;;;;28.44;37.78;100145.19;5015019;28;101769;-84
2022/06/16 09:51:27;;;;;;;7.53;7.00;;;;;;;28.32;37.14;100146.53;5015241;28;98513;-84
2022/06/16 09:54:17;;;;;;;8.55;7.22;;;;;;;28.14;37.32;100144.88;5007686;28;98802;-84
2022/06/16 09:56:53;;;;;;;7.85;7.28;;;;;;;28.03;37.27;100155.19;4999773;28;96879;-87
2022/06/16 09:59:25;;;;;;;8.30;7.35;;;;;;;27.78;37.20;100128.19;4989148;28;101915;-84
2022/06/16 10:02:12;;;;;;;8.43;7.82;;;;;;;28.03;37.64;100150.63;4992793;28;101137;-84
2022/06/16 10:04:37;;;;;;;8.65;7.93;;;;;;;28.15;37.37;100149.25;5031563;28;97287;-84
2022/06/16 10:07:15;;;;;;;8.05;7.45;;;;;;;28.17;36.77;100146.41;5015800;28;96851;-84
2022/06/16 10:10:07;;;;;;;8.40;7.80;;;;;;;28.21;36.71;100145.88;5032399;28;98468;-84
2022/06/16 10:12:44;;;;;;;8.20;7.50;;;;;;;28.24;36.23;100135.75;4965196;28;101840;-85
2022/06/16 10:15:28;;;;;;;8.48;7.68;;;;;;;28.33;35.82;100141.00;5004367;28;96807;-84
2022/06/16 10:17:54;;;;;;;8.73;7.97;;;;;;;28.14;36.13;100115.22;5020760;28;97850;-84
2022/06/16 10:20:21;;;;;;;8.43;7.72;;;;;;;28.16;36.79;100142.03;4998228;28;101466;-84
2022/06/16 10:22:55;;;;;;;8.65;7.90;;;;;;;28.13;37.50;100134.25;5015065;28;98445;-86
2022/06/16 10:25:28;;;;;;;9.07;8.27;;;;;;;28.12;37.65;100144.19;5014861;28;96938;-84
2022/06/16 10:28:01;;;;;;;9.52;8.63;;;;;;;27.94;37.35;100133.59;5015977;28;96719;-85
2022/06/16 10:30:39;;;;;;;8.30;7.68;;;;;;;28.08;37.70;100142.88;5014466;28;101620;-84
2022/06/16 10:33:22;;;;;;;8.63;7.85;;;;;;;28.23;36.91;100143.03;5027721;28;97818;-86
2022/06/16 10:35:52;;;;;;;9.25;8.30;;;;;;;28.32;37.05;100142.00;5013432;28;96818;-84
2022/06/16 10:38:58;;;;;;;8.57;7.88;;;;;;;28.46;36.79;100136.94;4997428;28;97085;-85
2022/06/16 10:41:32;;;;;;;8.25;7.63;;;;;;;28.42;37.11;100139.13;5017561;28;98595;-88
2022/06/16 10:43:59;;;;;;;9.60;8.68;;;;;;;28.42;37.22;100134.59;4994368;28;101556;-84
2022/06/16 10:46:34;;;;;;;8.85;8.05;;;;;;;28.39;36.44;100143.00;4996658;28;97542;-87
2022/06/16 10:49:04;;;;;;;8.40;7.78;;;;;;;28.39;36.30;100142.13;5014162;28;96826;-84
2022/06/16 10:51:30;;;;;;;;;;;;;;;28.21;35.82;100140.47;5014485;28;101043;-85
2022/06/16 10:54:29;;;;;;;8.48;7.80;;;;;;;28.28;35.81;100154.16;5014342;28;98384;-85
2022/06/16 10:57:17;;;;;;;8.13;7.43;;;;;;;28.25;36.55;100140.16;4994820;28;96758;-84
2022/06/16 11:00:07;;;;;;;7.15;6.55;;;;;;;28.25;36.09;100157.19;4991539;28;96954;-84
2022/06/16 11:02:35;;;;;;;7.82;7.13;;;;;;;28.20;36.24;100162.25;5013506;28;100349;-84
2022/06/16 11:05:10;;;;;;;7.68;7.03;;;;;;;28.03;36.66;100145.22;5014368;28;99043;-84
2022/06/16 11:07:39;;;;;;;7.63;7.18;;;;;;;27.97;36.88;100145.91;4997559;28;97068;-86
2022/06/16 11:10:15;;;;;;;8.98;7.50;;;;;;;27.96;36.73;100152.31;4997814;28;97089;-85
2022/06/16 11:12:45;;;;;;;8.32;7.53;;;;;;;27.90;36.97;100164.63;5013767;28;97955;-84
2022/06/16 11:15:21;;;;;;;14.70;13.27;;;;;;;27.82;37.12;100166.47;4998498;28;100987;-84
2022/06/16 11:17:50;;;;;;;8.88;8.20;;;;;;;27.54;37.35;100147.88;5010553;28;97469;-85
2022/06/16 11:20:17;;;;;;;8.48;7.82;;;;;;;27.44;37.31;100161.50;5014368;28;97485;-85
2022/06/16 11:22:46;;;;;;;8.35;7.65;;;;;;;27.47;37.28;100146.84;5013275;28;98483;-84
2022/06/16 11:25:31;;;;;;;8.35;7.55;;;;;;;27.42;36.57;100155.44;5013534;28;101454;-85
2022/06/16 11:28:12;;;;;;;8.23;7.53;;;;;;;27.29;36.78;100142.44;5025983;28;96791;-84
2022/06/16 11:30:47;;;;;;;7.75;7.00;;;;;;;27.30;37.08;100144.13;5030707;28;97138;-85
2022/06/16 11:36:20;;;;;;;8.43;7.30;;;;;;;27.21;37.56;100149.66;5018069;28;100067;-85
2022/06/16 11:39:10;;;;;;;8.35;7.53;;;;;;;27.14;37.94;100152.13;5010210;28;97218;-84
2022/06/16 11:41:37;;;;;;;7.47;6.88;;;;;;;27.08;38.01;100156.31;5013452;28;96873;-87
2022/06/16 11:44:14;;;;;;;8.10;7.50;;;;;;;27.01;38.11;100160.66;5030691;28;98090;-83
2022/06/16 11:46:55;;;;;;;8.73;7.90;;;;;;;26.98;37.95;100171.75;5015854;28;101706;-85
2022/06/16 11:49:46;;;;;;;8.95;7.93;;;;;;;26.80;38.13;100166.47;5016990;28;97603;-85
2022/06/16 11:52:21;;;;;;;8.55;7.82;;;;;;;26.74;38.29;100175.19;5012476;28;96953;-84
2022/06/16 11:55:10;;;;;;;7.75;7.15;;;;;;;26.68;38.64;100166.91;5016429;28;100452;-84
2022/06/16 11:58:16;;;;;;;8.18;7.38;;;;;;;26.61;38.92;100188.22;5007671;28;101401;-86
2022/06/16 12:00:48;;;;;;;13.27;7.28;;;;;;;26.69;39.14;100173.97;4990084;28;97148;-85
2022/06/16 12:03:29;;;;;;;8.10;7.50;;;;;;;26.62;39.39;100176.47;5016594;28;97952;-88
2022/06/16 12:06:24;;;;;;;13.10;9.65;;;;;;;26.62;38.66;100173.78;5002702;28;101080;-84